sensor_id;sensor_type;location;lat;lon;timestamp;P1;durP1;ratioP1;P2;durP2;ratioP2
1106;SDS011;540;49.448;8.612;2023-02-16T00:01:22;73.88;;;24.40;;
1106;SDS011;540;49.448;8.612;2023-02-16T00:03:51;68.10;;;25.50;;
1106;SDS011;540;49.448;8.612;2023-02-16T00:06:21;62.67;;;23.70;;
1106;SDS011;540;49.448;8.612;2023-02-16T00:08:50;73.07;;;23.65;;
1106;SDS011;540;49.448;8.612;2023-02-16T00:11:20;71.30;;;25.92;;
1106;SDS011;540;49.448;8.612;2023-02-16T00:14:10;69.30;;;27.25;;
1106;SDS011;540;49.448;8.612;2023-02-16T00:16:38;84.40;;;30.70;;
1106;SDS011;540;49.448;8.612;2023-02-16T00:19:15;94.20;;;33.72;;
1106;SDS011;540;49.448;8.612;2023-02-16T00:21:46;95.93;;;32.08;;
1106;SDS011;540;49.448;8.612;2023-02-16T00:24:15;95.82;;;33.00;;
1106;SDS011;540;49.448;8.612;2023-02-16T00:26:43;123.47;;;31.70;;
1106;SDS011;540;49.448;8.612;2023-02-16T00:29:13;106.72;;;31.63;;
1106;SDS011;540;49.448;8.612;2023-02-16T00:31:46;69.68;;;27.75;;
1106;SDS011;540;49.448;8.612;2023-02-16T00:34:21;86.65;;;30.42;;
1106;SDS011;540;49.448;8.612;2023-02-16T00:36:57;88.53;;;26.48;;
1106;SDS011;540;49.448;8.612;2023-02-16T00:39:26;111.05;;;27.92;;
1106;SDS011;540;49.448;8.612;2023-02-16T00:41:55;90.45;;;26.10;;
1106;SDS011;540;49.448;8.612;2023-02-16T00:44:28;74.20;;;25.75;;
1106;SDS011;540;49.448;8.612;2023-02-16T00:47:00;78.65;;;25.42;;
1106;SDS011;540;49.448;8.612;2023-02-16T00:49:29;59.90;;;25.27;;
1106;SDS011;540;49.448;8.612;2023-02-16T00:51:59;70.18;;;26.17;;
1106;SDS011;540;49.448;8.612;2023-02-16T00:54:27;86.25;;;25.10;;
1106;SDS011;540;49.448;8.612;2023-02-16T00:56:57;78.28;;;26.67;;
1106;SDS011;540;49.448;8.612;2023-02-16T00:59:25;92.88;;;26.23;;
1106;SDS011;540;49.448;8.612;2023-02-16T01:01:52;74.07;;;26.15;;
1106;SDS011;540;49.448;8.612;2023-02-16T01:04:22;80.82;;;26.25;;
1106;SDS011;540;49.448;8.612;2023-02-16T01:06:50;91.80;;;26.45;;
1106;SDS011;540;49.448;8.612;2023-02-16T01:09:37;89.20;;;26.38;;
1106;SDS011;540;49.448;8.612;2023-02-16T01:12:22;119.20;;;27.85;;
1106;SDS011;540;49.448;8.612;2023-02-16T01:14:51;100.88;;;27.77;;
1106;SDS011;540;49.448;8.612;2023-02-16T01:17:20;81.70;;;25.75;;
1106;SDS011;540;49.448;8.612;2023-02-16T01:19:49;65.57;;;24.40;;
1106;SDS011;540;49.448;8.612;2023-02-16T01:22:17;77.55;;;25.25;;
1106;SDS011;540;49.448;8.612;2023-02-16T01:24:46;84.35;;;22.02;;
1106;SDS011;540;49.448;8.612;2023-02-16T01:27:14;58.80;;;23.38;;
1106;SDS011;540;49.448;8.612;2023-02-16T01:29:41;75.75;;;23.35;;
1106;SDS011;540;49.448;8.612;2023-02-16T01:32:09;78.13;;;22.92;;
1106;SDS011;540;49.448;8.612;2023-02-16T01:34:38;65.00;;;23.48;;
1106;SDS011;540;49.448;8.612;2023-02-16T01:37:09;86.97;;;25.58;;
1106;SDS011;540;49.448;8.612;2023-02-16T01:39:40;88.97;;;26.20;;
1106;SDS011;540;49.448;8.612;2023-02-16T01:42:12;83.50;;;24.88;;
1106;SDS011;540;49.448;8.612;2023-02-16T01:44:50;81.80;;;22.95;;
1106;SDS011;540;49.448;8.612;2023-02-16T01:47:28;70.70;;;22.80;;
1106;SDS011;540;49.448;8.612;2023-02-16T01:49:59;49.38;;;21.27;;
1106;SDS011;540;49.448;8.612;2023-02-16T01:52:39;52.40;;;20.92;;
1106;SDS011;540;49.448;8.612;2023-02-16T01:55:12;63.40;;;21.05;;
1106;SDS011;540;49.448;8.612;2023-02-16T01:57:45;54.85;;;22.20;;
1106;SDS011;540;49.448;8.612;2023-02-16T02:00:18;64.90;;;22.38;;
1106;SDS011;540;49.448;8.612;2023-02-16T02:02:52;83.93;;;21.23;;
1106;SDS011;540;49.448;8.612;2023-02-16T02:05:42;76.90;;;21.83;;
1106;SDS011;540;49.448;8.612;2023-02-16T02:08:11;119.22;;;22.67;;
1106;SDS011;540;49.448;8.612;2023-02-16T02:10:49;72.65;;;20.65;;
1106;SDS011;540;49.448;8.612;2023-02-16T02:13:25;55.30;;;21.10;;
1106;SDS011;540;49.448;8.612;2023-02-16T02:15:58;100.27;;;24.53;;
1106;SDS011;540;49.448;8.612;2023-02-16T02:18:30;64.90;;;21.30;;
1106;SDS011;540;49.448;8.612;2023-02-16T02:21:08;52.28;;;20.33;;
1106;SDS011;540;49.448;8.612;2023-02-16T02:24:18;64.60;;;21.20;;
1106;SDS011;540;49.448;8.612;2023-02-16T02:27:16;93.18;;;20.50;;
1106;SDS011;540;49.448;8.612;2023-02-16T02:32:54;70.65;;;21.50;;
1106;SDS011;540;49.448;8.612;2023-02-16T02:35:35;77.03;;;22.10;;
1106;SDS011;540;49.448;8.612;2023-02-16T02:38:11;62.95;;;21.33;;
1106;SDS011;540;49.448;8.612;2023-02-16T02:40:46;64.50;;;21.40;;
1106;SDS011;540;49.448;8.612;2023-02-16T02:43:23;53.75;;;22.52;;
1106;SDS011;540;49.448;8.612;2023-02-16T02:45:53;65.82;;;21.38;;
1106;SDS011;540;49.448;8.612;2023-02-16T02:48:28;85.53;;;22.40;;
1106;SDS011;540;49.448;8.612;2023-02-16T02:50:56;75.47;;;21.40;;
1106;SDS011;540;49.448;8.612;2023-02-16T02:53:40;69.63;;;24.00;;
1106;SDS011;540;49.448;8.612;2023-02-16T02:56:13;49.55;;;20.10;;
1106;SDS011;540;49.448;8.612;2023-02-16T02:59:03;81.80;;;23.60;;
1106;SDS011;540;49.448;8.612;2023-02-16T03:01:52;56.20;;;21.08;;
1106;SDS011;540;49.448;8.612;2023-02-16T03:04:24;51.90;;;21.85;;
1106;SDS011;540;49.448;8.612;2023-02-16T03:06:57;103.78;;;20.73;;
1106;SDS011;540;49.448;8.612;2023-02-16T03:09:26;62.85;;;20.27;;
1106;SDS011;540;49.448;8.612;2023-02-16T03:11:54;51.95;;;21.50;;
1106;SDS011;540;49.448;8.612;2023-02-16T03:14:43;54.53;;;20.67;;
1106;SDS011;540;49.448;8.612;2023-02-16T03:17:17;49.53;;;20.58;;
1106;SDS011;540;49.448;8.612;2023-02-16T03:20:30;66.82;;;22.50;;
1106;SDS011;540;49.448;8.612;2023-02-16T03:23:16;53.70;;;20.25;;
1106;SDS011;540;49.448;8.612;2023-02-16T03:26:01;59.53;;;20.50;;
1106;SDS011;540;49.448;8.612;2023-02-16T03:28:46;47.80;;;21.27;;
1106;SDS011;540;49.448;8.612;2023-02-16T03:31:34;56.08;;;21.98;;
1106;SDS011;540;49.448;8.612;2023-02-16T03:34:04;51.88;;;21.00;;
1106;SDS011;540;49.448;8.612;2023-02-16T03:36:33;51.35;;;21.35;;
1106;SDS011;540;49.448;8.612;2023-02-16T03:39:03;58.22;;;22.13;;
1106;SDS011;540;49.448;8.612;2023-02-16T03:41:32;57.13;;;22.17;;
1106;SDS011;540;49.448;8.612;2023-02-16T03:44:01;53.65;;;22.13;;
1106;SDS011;540;49.448;8.612;2023-02-16T03:46:29;50.60;;;21.42;;
1106;SDS011;540;49.448;8.612;2023-02-16T03:48:58;59.60;;;22.02;;
1106;SDS011;540;49.448;8.612;2023-02-16T03:51:26;61.47;;;22.23;;
1106;SDS011;540;49.448;8.612;2023-02-16T03:53:54;61.08;;;23.17;;
1106;SDS011;540;49.448;8.612;2023-02-16T03:56:22;53.20;;;20.10;;
1106;SDS011;540;49.448;8.612;2023-02-16T03:58:49;54.65;;;21.80;;
1106;SDS011;540;49.448;8.612;2023-02-16T04:01:17;48.55;;;19.67;;
1106;SDS011;540;49.448;8.612;2023-02-16T04:03:45;48.03;;;20.27;;
1106;SDS011;540;49.448;8.612;2023-02-16T04:06:14;52.97;;;19.88;;
1106;SDS011;540;49.448;8.612;2023-02-16T04:08:42;54.92;;;20.92;;
1106;SDS011;540;49.448;8.612;2023-02-16T04:11:10;46.03;;;20.50;;
1106;SDS011;540;49.448;8.612;2023-02-16T04:13:55;58.05;;;22.10;;
1106;SDS011;540;49.448;8.612;2023-02-16T04:16:23;55.20;;;22.08;;
1106;SDS011;540;49.448;8.612;2023-02-16T04:18:51;57.83;;;20.75;;
1106;SDS011;540;49.448;8.612;2023-02-16T04:21:20;50.13;;;20.10;;
1106;SDS011;540;49.448;8.612;2023-02-16T04:23:48;48.00;;;19.90;;
1106;SDS011;540;49.448;8.612;2023-02-16T04:26:15;57.70;;;20.25;;
1106;SDS011;540;49.448;8.612;2023-02-16T04:28:43;63.97;;;22.15;;
1106;SDS011;540;49.448;8.612;2023-02-16T04:31:11;61.22;;;21.27;;
1106;SDS011;540;49.448;8.612;2023-02-16T04:33:39;53.20;;;20.85;;
1106;SDS011;540;49.448;8.612;2023-02-16T04:36:07;58.88;;;20.58;;
1106;SDS011;540;49.448;8.612;2023-02-16T04:38:37;55.85;;;22.15;;
1106;SDS011;540;49.448;8.612;2023-02-16T04:41:04;54.83;;;21.77;;
1106;SDS011;540;49.448;8.612;2023-02-16T04:43:32;62.72;;;21.75;;
1106;SDS011;540;49.448;8.612;2023-02-16T04:46:00;68.30;;;24.02;;
1106;SDS011;540;49.448;8.612;2023-02-16T04:48:28;55.80;;;22.83;;
1106;SDS011;540;49.448;8.612;2023-02-16T04:50:55;63.75;;;20.50;;
1106;SDS011;540;49.448;8.612;2023-02-16T04:53:23;65.15;;;23.33;;
1106;SDS011;540;49.448;8.612;2023-02-16T04:55:52;57.40;;;21.20;;
1106;SDS011;540;49.448;8.612;2023-02-16T04:58:20;69.53;;;25.25;;
1106;SDS011;540;49.448;8.612;2023-02-16T05:00:48;67.78;;;22.63;;
1106;SDS011;540;49.448;8.612;2023-02-16T05:03:16;58.80;;;22.13;;
1106;SDS011;540;49.448;8.612;2023-02-16T05:05:43;65.45;;;22.80;;
1106;SDS011;540;49.448;8.612;2023-02-16T05:08:11;61.47;;;22.85;;
1106;SDS011;540;49.448;8.612;2023-02-16T05:10:39;63.47;;;22.60;;
1106;SDS011;540;49.448;8.612;2023-02-16T05:13:09;64.03;;;22.60;;
1106;SDS011;540;49.448;8.612;2023-02-16T05:15:55;56.17;;;20.50;;
1106;SDS011;540;49.448;8.612;2023-02-16T05:18:23;62.58;;;22.08;;
1106;SDS011;540;49.448;8.612;2023-02-16T05:20:50;50.63;;;21.30;;
1106;SDS011;540;49.448;8.612;2023-02-16T05:23:35;67.75;;;22.10;;
1106;SDS011;540;49.448;8.612;2023-02-16T05:26:04;59.78;;;20.38;;
1106;SDS011;540;49.448;8.612;2023-02-16T05:28:33;57.00;;;22.20;;
1106;SDS011;540;49.448;8.612;2023-02-16T05:31:01;67.25;;;25.00;;
1106;SDS011;540;49.448;8.612;2023-02-16T05:33:29;75.30;;;25.75;;
1106;SDS011;540;49.448;8.612;2023-02-16T05:35:57;52.65;;;21.98;;
1106;SDS011;540;49.448;8.612;2023-02-16T05:38:24;54.30;;;21.63;;
1106;SDS011;540;49.448;8.612;2023-02-16T05:40:52;62.30;;;23.92;;
1106;SDS011;540;49.448;8.612;2023-02-16T05:43:20;60.08;;;22.45;;
1106;SDS011;540;49.448;8.612;2023-02-16T05:45:49;75.07;;;22.42;;
1106;SDS011;540;49.448;8.612;2023-02-16T05:48:17;61.25;;;22.77;;
1106;SDS011;540;49.448;8.612;2023-02-16T05:50:45;75.00;;;27.63;;
1106;SDS011;540;49.448;8.612;2023-02-16T05:53:13;79.75;;;30.02;;
1106;SDS011;540;49.448;8.612;2023-02-16T05:55:42;71.28;;;28.77;;
1106;SDS011;540;49.448;8.612;2023-02-16T05:58:10;61.50;;;26.20;;
1106;SDS011;540;49.448;8.612;2023-02-16T06:00:38;62.13;;;23.77;;
1106;SDS011;540;49.448;8.612;2023-02-16T06:03:07;61.08;;;24.38;;
1106;SDS011;540;49.448;8.612;2023-02-16T06:05:34;76.13;;;30.55;;
1106;SDS011;540;49.448;8.612;2023-02-16T06:08:02;88.85;;;32.25;;
1106;SDS011;540;49.448;8.612;2023-02-16T06:10:30;75.18;;;27.00;;
1106;SDS011;540;49.448;8.612;2023-02-16T06:12:58;63.20;;;23.60;;
1106;SDS011;540;49.448;8.612;2023-02-16T06:15:26;55.08;;;23.65;;
1106;SDS011;540;49.448;8.612;2023-02-16T06:17:54;58.30;;;21.40;;
1106;SDS011;540;49.448;8.612;2023-02-16T06:20:23;53.58;;;21.92;;
1106;SDS011;540;49.448;8.612;2023-02-16T06:22:51;54.38;;;22.58;;
1106;SDS011;540;49.448;8.612;2023-02-16T06:25:18;59.53;;;23.27;;
1106;SDS011;540;49.448;8.612;2023-02-16T06:27:46;63.45;;;23.10;;
1106;SDS011;540;49.448;8.612;2023-02-16T06:30:15;61.20;;;24.35;;
1106;SDS011;540;49.448;8.612;2023-02-16T06:32:44;59.35;;;23.90;;
1106;SDS011;540;49.448;8.612;2023-02-16T06:35:12;71.05;;;24.60;;
1106;SDS011;540;49.448;8.612;2023-02-16T06:37:41;67.03;;;23.50;;
1106;SDS011;540;49.448;8.612;2023-02-16T06:40:10;65.35;;;24.90;;
1106;SDS011;540;49.448;8.612;2023-02-16T06:42:39;69.80;;;25.55;;
1106;SDS011;540;49.448;8.612;2023-02-16T06:45:07;62.83;;;24.00;;
1106;SDS011;540;49.448;8.612;2023-02-16T06:47:36;62.90;;;23.50;;
1106;SDS011;540;49.448;8.612;2023-02-16T06:50:05;48.33;;;21.70;;
1106;SDS011;540;49.448;8.612;2023-02-16T06:52:35;60.95;;;24.42;;
1106;SDS011;540;49.448;8.612;2023-02-16T06:55:04;51.22;;;22.83;;
1106;SDS011;540;49.448;8.612;2023-02-16T06:57:33;58.72;;;22.35;;
1106;SDS011;540;49.448;8.612;2023-02-16T07:00:01;67.63;;;25.95;;
1106;SDS011;540;49.448;8.612;2023-02-16T07:02:30;63.97;;;25.23;;
1106;SDS011;540;49.448;8.612;2023-02-16T07:04:58;61.90;;;24.67;;
1106;SDS011;540;49.448;8.612;2023-02-16T07:07:26;71.95;;;25.75;;
1106;SDS011;540;49.448;8.612;2023-02-16T07:09:54;69.80;;;26.27;;
1106;SDS011;540;49.448;8.612;2023-02-16T07:12:23;64.55;;;24.67;;
1106;SDS011;540;49.448;8.612;2023-02-16T07:14:51;77.40;;;26.55;;
1106;SDS011;540;49.448;8.612;2023-02-16T07:17:18;65.38;;;24.48;;
1106;SDS011;540;49.448;8.612;2023-02-16T07:19:46;67.10;;;23.55;;
1106;SDS011;540;49.448;8.612;2023-02-16T07:22:14;68.28;;;24.35;;
1106;SDS011;540;49.448;8.612;2023-02-16T07:24:42;64.03;;;22.75;;
1106;SDS011;540;49.448;8.612;2023-02-16T07:27:10;65.90;;;23.98;;
1106;SDS011;540;49.448;8.612;2023-02-16T07:29:39;71.93;;;24.33;;
1106;SDS011;540;49.448;8.612;2023-02-16T07:32:07;68.78;;;24.98;;
1106;SDS011;540;49.448;8.612;2023-02-16T07:34:35;74.85;;;23.98;;
1106;SDS011;540;49.448;8.612;2023-02-16T07:37:03;74.90;;;23.77;;
1106;SDS011;540;49.448;8.612;2023-02-16T07:39:31;60.38;;;23.88;;
1106;SDS011;540;49.448;8.612;2023-02-16T07:41:59;65.90;;;24.55;;
1106;SDS011;540;49.448;8.612;2023-02-16T07:44:27;66.50;;;25.02;;
1106;SDS011;540;49.448;8.612;2023-02-16T07:46:56;58.13;;;25.85;;
1106;SDS011;540;49.448;8.612;2023-02-16T07:49:23;68.10;;;25.67;;
1106;SDS011;540;49.448;8.612;2023-02-16T07:51:51;71.47;;;25.67;;
1106;SDS011;540;49.448;8.612;2023-02-16T07:54:19;58.33;;;24.63;;
1106;SDS011;540;49.448;8.612;2023-02-16T07:56:47;52.97;;;22.83;;
1106;SDS011;540;49.448;8.612;2023-02-16T07:59:14;54.17;;;23.33;;
1106;SDS011;540;49.448;8.612;2023-02-16T08:01:42;46.55;;;22.08;;
1106;SDS011;540;49.448;8.612;2023-02-16T08:04:11;45.67;;;19.77;;
1106;SDS011;540;49.448;8.612;2023-02-16T08:06:39;44.92;;;19.75;;
1106;SDS011;540;49.448;8.612;2023-02-16T08:09:07;38.95;;;17.65;;
1106;SDS011;540;49.448;8.612;2023-02-16T08:11:35;37.88;;;18.13;;
1106;SDS011;540;49.448;8.612;2023-02-16T08:14:02;32.35;;;15.70;;
1106;SDS011;540;49.448;8.612;2023-02-16T08:16:30;31.63;;;17.33;;
1106;SDS011;540;49.448;8.612;2023-02-16T08:18:58;31.35;;;16.38;;
1106;SDS011;540;49.448;8.612;2023-02-16T08:21:30;27.63;;;15.95;;
1106;SDS011;540;49.448;8.612;2023-02-16T08:24:00;28.25;;;14.38;;
1106;SDS011;540;49.448;8.612;2023-02-16T08:26:32;32.17;;;15.07;;
1106;SDS011;540;49.448;8.612;2023-02-16T08:29:02;29.38;;;15.52;;
1106;SDS011;540;49.448;8.612;2023-02-16T08:31:31;28.60;;;14.43;;
1106;SDS011;540;49.448;8.612;2023-02-16T08:34:02;25.65;;;14.93;;
1106;SDS011;540;49.448;8.612;2023-02-16T08:36:33;28.33;;;14.77;;
1106;SDS011;540;49.448;8.612;2023-02-16T08:39:03;23.85;;;14.35;;
1106;SDS011;540;49.448;8.612;2023-02-16T08:41:32;23.00;;;14.05;;
1106;SDS011;540;49.448;8.612;2023-02-16T08:44:01;21.88;;;13.57;;
1106;SDS011;540;49.448;8.612;2023-02-16T08:46:30;23.35;;;14.30;;
1106;SDS011;540;49.448;8.612;2023-02-16T08:48:59;25.45;;;14.07;;
1106;SDS011;540;49.448;8.612;2023-02-16T08:51:29;26.75;;;14.82;;
1106;SDS011;540;49.448;8.612;2023-02-16T08:54:01;25.58;;;14.00;;
1106;SDS011;540;49.448;8.612;2023-02-16T08:56:31;27.05;;;14.15;;
1106;SDS011;540;49.448;8.612;2023-02-16T08:58:59;23.13;;;14.43;;
1106;SDS011;540;49.448;8.612;2023-02-16T09:01:28;26.92;;;14.98;;
1106;SDS011;540;49.448;8.612;2023-02-16T09:03:58;24.75;;;14.60;;
1106;SDS011;540;49.448;8.612;2023-02-16T09:06:29;24.70;;;14.80;;
1106;SDS011;540;49.448;8.612;2023-02-16T09:08:59;22.13;;;14.20;;
1106;SDS011;540;49.448;8.612;2023-02-16T09:11:31;24.45;;;13.93;;
1106;SDS011;540;49.448;8.612;2023-02-16T09:14:01;23.10;;;13.88;;
1106;SDS011;540;49.448;8.612;2023-02-16T09:16:31;26.25;;;15.35;;
1106;SDS011;540;49.448;8.612;2023-02-16T09:19:04;23.92;;;14.23;;
1106;SDS011;540;49.448;8.612;2023-02-16T09:21:34;24.30;;;14.25;;
1106;SDS011;540;49.448;8.612;2023-02-16T09:24:06;25.75;;;15.10;;
1106;SDS011;540;49.448;8.612;2023-02-16T09:26:37;24.38;;;15.32;;
1106;SDS011;540;49.448;8.612;2023-02-16T09:29:09;25.23;;;15.63;;
1106;SDS011;540;49.448;8.612;2023-02-16T09:31:40;24.55;;;14.52;;
1106;SDS011;540;49.448;8.612;2023-02-16T09:34:15;23.75;;;15.05;;
1106;SDS011;540;49.448;8.612;2023-02-16T09:36:47;24.98;;;16.33;;
1106;SDS011;540;49.448;8.612;2023-02-16T09:39:19;22.65;;;14.63;;
1106;SDS011;540;49.448;8.612;2023-02-16T09:41:58;23.38;;;15.18;;
1106;SDS011;540;49.448;8.612;2023-02-16T09:44:35;21.52;;;13.85;;
1106;SDS011;540;49.448;8.612;2023-02-16T09:47:14;23.20;;;14.57;;
1106;SDS011;540;49.448;8.612;2023-02-16T09:49:48;22.25;;;14.80;;
1106;SDS011;540;49.448;8.612;2023-02-16T09:52:19;21.05;;;14.02;;
1106;SDS011;540;49.448;8.612;2023-02-16T09:54:56;23.38;;;15.18;;
1106;SDS011;540;49.448;8.612;2023-02-16T09:57:32;23.05;;;15.23;;
1106;SDS011;540;49.448;8.612;2023-02-16T10:00:10;26.83;;;14.70;;
1106;SDS011;540;49.448;8.612;2023-02-16T10:02:47;21.13;;;14.05;;
1106;SDS011;540;49.448;8.612;2023-02-16T10:05:23;23.80;;;14.60;;
1106;SDS011;540;49.448;8.612;2023-02-16T10:07:56;24.20;;;14.25;;
1106;SDS011;540;49.448;8.612;2023-02-16T10:10:30;21.83;;;14.05;;
1106;SDS011;540;49.448;8.612;2023-02-16T10:13:05;23.17;;;14.35;;
1106;SDS011;540;49.448;8.612;2023-02-16T10:15:38;21.60;;;14.68;;
1106;SDS011;540;49.448;8.612;2023-02-16T10:18:13;20.15;;;13.38;;
1106;SDS011;540;49.448;8.612;2023-02-16T10:20:47;27.17;;;15.15;;
1106;SDS011;540;49.448;8.612;2023-02-16T10:23:25;26.55;;;15.32;;
1106;SDS011;540;49.448;8.612;2023-02-16T10:26:03;25.00;;;14.68;;
1106;SDS011;540;49.448;8.612;2023-02-16T10:28:41;23.48;;;14.43;;
1106;SDS011;540;49.448;8.612;2023-02-16T10:31:12;23.23;;;13.75;;
1106;SDS011;540;49.448;8.612;2023-02-16T10:33:50;22.27;;;14.13;;
1106;SDS011;540;49.448;8.612;2023-02-16T10:36:28;21.25;;;13.30;;
1106;SDS011;540;49.448;8.612;2023-02-16T10:39:07;24.15;;;13.98;;
1106;SDS011;540;49.448;8.612;2023-02-16T10:41:45;23.48;;;13.90;;
1106;SDS011;540;49.448;8.612;2023-02-16T10:44:18;24.08;;;14.55;;
1106;SDS011;540;49.448;8.612;2023-02-16T10:46:51;26.77;;;13.63;;
1106;SDS011;540;49.448;8.612;2023-02-16T10:49:23;24.80;;;14.38;;
1106;SDS011;540;49.448;8.612;2023-02-16T10:51:53;22.52;;;13.45;;
1106;SDS011;540;49.448;8.612;2023-02-16T10:54:23;26.20;;;14.98;;
1106;SDS011;540;49.448;8.612;2023-02-16T10:56:55;26.95;;;13.73;;
1106;SDS011;540;49.448;8.612;2023-02-16T10:59:30;23.83;;;14.30;;
1106;SDS011;540;49.448;8.612;2023-02-16T11:02:12;24.08;;;13.38;;
1106;SDS011;540;49.448;8.612;2023-02-16T11:04:45;29.02;;;15.13;;
1106;SDS011;540;49.448;8.612;2023-02-16T11:07:14;26.80;;;14.23;;
1106;SDS011;540;49.448;8.612;2023-02-16T11:09:44;22.45;;;14.73;;
1106;SDS011;540;49.448;8.612;2023-02-16T11:12:16;24.25;;;14.55;;
1106;SDS011;540;49.448;8.612;2023-02-16T11:14:56;22.25;;;13.10;;
1106;SDS011;540;49.448;8.612;2023-02-16T11:17:26;24.88;;;14.80;;
1106;SDS011;540;49.448;8.612;2023-02-16T11:19:55;26.52;;;13.85;;
1106;SDS011;540;49.448;8.612;2023-02-16T11:22:31;23.23;;;13.35;;
1106;SDS011;540;49.448;8.612;2023-02-16T11:25:20;24.25;;;13.30;;
1106;SDS011;540;49.448;8.612;2023-02-16T11:27:53;26.30;;;13.88;;
1106;SDS011;540;49.448;8.612;2023-02-16T11:30:27;23.55;;;13.13;;
1106;SDS011;540;49.448;8.612;2023-02-16T11:32:58;24.23;;;13.75;;
1106;SDS011;540;49.448;8.612;2023-02-16T11:35:28;20.33;;;12.48;;
1106;SDS011;540;49.448;8.612;2023-02-16T11:37:58;22.02;;;13.90;;
1106;SDS011;540;49.448;8.612;2023-02-16T11:40:27;27.35;;;14.93;;
1106;SDS011;540;49.448;8.612;2023-02-16T11:42:59;26.77;;;13.30;;
1106;SDS011;540;49.448;8.612;2023-02-16T11:45:28;24.58;;;13.98;;
1106;SDS011;540;49.448;8.612;2023-02-16T11:48:00;25.77;;;13.88;;
1106;SDS011;540;49.448;8.612;2023-02-16T11:50:32;25.63;;;13.25;;
1106;SDS011;540;49.448;8.612;2023-02-16T11:53:12;24.85;;;13.23;;
1106;SDS011;540;49.448;8.612;2023-02-16T11:55:42;22.77;;;12.20;;
1106;SDS011;540;49.448;8.612;2023-02-16T11:58:14;20.88;;;11.52;;
1106;SDS011;540;49.448;8.612;2023-02-16T12:00:48;23.30;;;12.77;;
1106;SDS011;540;49.448;8.612;2023-02-16T12:03:33;24.23;;;13.77;;
1106;SDS011;540;49.448;8.612;2023-02-16T12:06:22;21.92;;;12.73;;
1106;SDS011;540;49.448;8.612;2023-02-16T12:09:07;20.10;;;12.55;;
1106;SDS011;540;49.448;8.612;2023-02-16T12:11:49;26.27;;;13.07;;
1106;SDS011;540;49.448;8.612;2023-02-16T12:14:30;19.13;;;11.95;;
1106;SDS011;540;49.448;8.612;2023-02-16T12:17:12;23.98;;;12.07;;
1106;SDS011;540;49.448;8.612;2023-02-16T12:19:49;20.17;;;12.23;;
1106;SDS011;540;49.448;8.612;2023-02-16T12:22:27;19.80;;;11.77;;
1106;SDS011;540;49.448;8.612;2023-02-16T12:25:04;22.00;;;11.57;;
1106;SDS011;540;49.448;8.612;2023-02-16T12:27:48;19.70;;;11.63;;
1106;SDS011;540;49.448;8.612;2023-02-16T12:30:27;18.77;;;11.65;;
1106;SDS011;540;49.448;8.612;2023-02-16T12:33:09;22.55;;;12.65;;
1106;SDS011;540;49.448;8.612;2023-02-16T12:35:52;20.25;;;11.50;;
1106;SDS011;540;49.448;8.612;2023-02-16T12:38:30;17.67;;;11.20;;
1106;SDS011;540;49.448;8.612;2023-02-16T12:41:06;23.67;;;12.80;;
1106;SDS011;540;49.448;8.612;2023-02-16T12:43:43;18.50;;;11.80;;
1106;SDS011;540;49.448;8.612;2023-02-16T12:46:16;21.08;;;12.43;;
1106;SDS011;540;49.448;8.612;2023-02-16T12:48:49;25.20;;;12.48;;
1106;SDS011;540;49.448;8.612;2023-02-16T12:51:21;27.95;;;12.13;;
1106;SDS011;540;49.448;8.612;2023-02-16T12:53:55;22.38;;;12.77;;
1106;SDS011;540;49.448;8.612;2023-02-16T12:56:30;20.08;;;11.85;;
1106;SDS011;540;49.448;8.612;2023-02-16T12:59:09;22.08;;;11.18;;
1106;SDS011;540;49.448;8.612;2023-02-16T13:01:44;21.85;;;11.85;;
1106;SDS011;540;49.448;8.612;2023-02-16T13:04:17;23.85;;;12.27;;
1106;SDS011;540;49.448;8.612;2023-02-16T13:06:49;20.90;;;13.77;;
1106;SDS011;540;49.448;8.612;2023-02-16T13:09:26;20.15;;;12.57;;
1106;SDS011;540;49.448;8.612;2023-02-16T13:12:03;24.55;;;14.55;;
1106;SDS011;540;49.448;8.612;2023-02-16T13:14:38;25.45;;;13.40;;
1106;SDS011;540;49.448;8.612;2023-02-16T13:17:12;17.13;;;10.48;;
1106;SDS011;540;49.448;8.612;2023-02-16T13:19:42;18.30;;;10.45;;
1106;SDS011;540;49.448;8.612;2023-02-16T13:22:18;20.73;;;11.63;;
1106;SDS011;540;49.448;8.612;2023-02-16T13:25:13;19.63;;;9.90;;
1106;SDS011;540;49.448;8.612;2023-02-16T13:27:54;18.90;;;11.43;;
1106;SDS011;540;49.448;8.612;2023-02-16T13:30:33;15.80;;;10.55;;
1106;SDS011;540;49.448;8.612;2023-02-16T13:33:15;17.80;;;9.60;;
1106;SDS011;540;49.448;8.612;2023-02-16T13:35:59;18.67;;;10.27;;
1106;SDS011;540;49.448;8.612;2023-02-16T13:38:59;19.88;;;10.13;;
1106;SDS011;540;49.448;8.612;2023-02-16T13:41:49;15.00;;;8.98;;
1106;SDS011;540;49.448;8.612;2023-02-16T13:44:33;16.40;;;8.38;;
1106;SDS011;540;49.448;8.612;2023-02-16T13:47:04;14.80;;;9.00;;
1106;SDS011;540;49.448;8.612;2023-02-16T13:49:36;13.70;;;7.80;;
1106;SDS011;540;49.448;8.612;2023-02-16T13:52:08;14.30;;;7.15;;
1106;SDS011;540;49.448;8.612;2023-02-16T13:54:38;13.70;;;7.60;;
1106;SDS011;540;49.448;8.612;2023-02-16T13:57:09;12.45;;;7.22;;
1106;SDS011;540;49.448;8.612;2023-02-16T14:05:25;10.88;;;5.90;;
1106;SDS011;540;49.448;8.612;2023-02-16T14:08:09;14.23;;;6.97;;
1106;SDS011;540;49.448;8.612;2023-02-16T14:10:54;13.00;;;6.88;;
1106;SDS011;540;49.448;8.612;2023-02-16T14:13:26;14.02;;;6.80;;
1106;SDS011;540;49.448;8.612;2023-02-16T14:15:56;11.65;;;6.43;;
1106;SDS011;540;49.448;8.612;2023-02-16T14:18:26;10.23;;;5.93;;
1106;SDS011;540;49.448;8.612;2023-02-16T14:21:02;11.45;;;5.22;;
1106;SDS011;540;49.448;8.612;2023-02-16T14:23:32;13.00;;;5.47;;
1106;SDS011;540;49.448;8.612;2023-02-16T14:26:02;12.48;;;6.15;;
1106;SDS011;540;49.448;8.612;2023-02-16T14:31:38;12.95;;;6.90;;
1106;SDS011;540;49.448;8.612;2023-02-16T14:39:44;12.90;;;6.90;;
1106;SDS011;540;49.448;8.612;2023-02-16T14:42:33;16.90;;;8.95;;
1106;SDS011;540;49.448;8.612;2023-02-16T14:45:16;13.88;;;8.05;;
1106;SDS011;540;49.448;8.612;2023-02-16T14:48:05;10.88;;;6.82;;
1106;SDS011;540;49.448;8.612;2023-02-16T14:50:50;12.05;;;7.43;;
1106;SDS011;540;49.448;8.612;2023-02-16T14:53:50;11.73;;;6.50;;
1106;SDS011;540;49.448;8.612;2023-02-16T14:56:37;15.30;;;7.13;;
1106;SDS011;540;49.448;8.612;2023-02-16T14:59:13;10.48;;;6.18;;
1106;SDS011;540;49.448;8.612;2023-02-16T15:01:49;12.02;;;6.60;;
1106;SDS011;540;49.448;8.612;2023-02-16T15:04:25;11.95;;;6.57;;
1106;SDS011;540;49.448;8.612;2023-02-16T15:06:54;13.40;;;6.47;;
1106;SDS011;540;49.448;8.612;2023-02-16T15:09:24;10.90;;;6.95;;
1106;SDS011;540;49.448;8.612;2023-02-16T15:11:58;12.52;;;6.43;;
1106;SDS011;540;49.448;8.612;2023-02-16T15:14:47;11.98;;;6.90;;
1106;SDS011;540;49.448;8.612;2023-02-16T15:17:20;12.63;;;7.13;;
1106;SDS011;540;49.448;8.612;2023-02-16T15:19:54;11.23;;;6.60;;
1106;SDS011;540;49.448;8.612;2023-02-16T15:22:24;11.95;;;6.15;;
1106;SDS011;540;49.448;8.612;2023-02-16T15:24:54;11.10;;;5.60;;
1106;SDS011;540;49.448;8.612;2023-02-16T15:27:25;12.27;;;6.07;;
1106;SDS011;540;49.448;8.612;2023-02-16T15:30:04;11.77;;;6.00;;
1106;SDS011;540;49.448;8.612;2023-02-16T15:32:35;10.63;;;5.75;;
1106;SDS011;540;49.448;8.612;2023-02-16T15:35:10;14.18;;;6.43;;
1106;SDS011;540;49.448;8.612;2023-02-16T15:37:48;9.05;;;5.30;;
1106;SDS011;540;49.448;8.612;2023-02-16T15:40:29;9.38;;;5.35;;
1106;SDS011;540;49.448;8.612;2023-02-16T15:43:04;18.70;;;8.07;;
1106;SDS011;540;49.448;8.612;2023-02-16T15:45:36;18.33;;;6.90;;
1106;SDS011;540;49.448;8.612;2023-02-16T15:48:20;13.77;;;6.85;;
1106;SDS011;540;49.448;8.612;2023-02-16T15:50:52;14.55;;;6.22;;
1106;SDS011;540;49.448;8.612;2023-02-16T15:53:22;10.73;;;6.18;;
1106;SDS011;540;49.448;8.612;2023-02-16T15:56:00;11.38;;;6.35;;